Time;durP1;ratioP1;P1;durP2;ratioP2;P2;SDS_P1;SDS_P2;PMS_P1;PMS_P2;Temp;Humidity;BMP_temperature;BMP_pressure;BME280_temperature;BME280_humidity;BME280_pressure;Samples;Min_cycle;Max_cycle;Signal;HPM_P1;HPM_P2
2022/06/27 00:02:00;;;;;;;0.60;0.10;;;21.10;1.00;;;;;;5052133;28;20458;-71
2022/06/27 00:04:29;;;;;;;0.60;0.10;;;21.10;1.00;;;;;;5052934;28;20446;-71
2022/06/27 00:06:57;;;;;;;1.00;0.20;;;21.10;1.00;;;;;;5047332;28;20778;-71
2022/06/27 00:09:25;;;;;;;0.60;0.20;;;21.10;1.00;;;;;;5048217;28;20451;-72
2022/06/27 00:11:53;;;;;;;0.60;0.10;;;21.00;1.00;;;;;;5051992;28;20439;-71
2022/06/27 00:14:21;;;;;;;0.60;0.10;;;21.00;1.00;;;;;;5052399;28;20847;-72
2022/06/27 00:16:49;;;;;;;0.60;0.10;;;21.00;1.00;;;;;;5054761;28;20439;-71
2022/06/27 00:19:18;;;;;;;0.60;0.10;;;21.00;1.00;;;;;;5057376;28;20968;-71
2022/06/27 00:21:47;;;;;;;0.70;0.20;;;21.10;1.00;;;;;;5050558;28;20443;-71
2022/06/27 00:24:15;;;;;;;0.60;0.10;;;21.10;1.00;;;;;;5055678;28;20781;-71
2022/06/27 00:26:43;;;;;;;0.60;0.10;;;21.10;1.00;;;;;;5051173;28;20517;-71
2022/06/27 00:29:11;;;;;;;0.60;0.10;;;21.10;1.00;;;;;;5054197;28;20474;-72
2022/06/27 00:31:39;;;;;;;0.60;0.10;;;21.10;1.00;;;;;;5051560;28;20489;-74
2022/06/27 00:34:07;;;;;;;0.60;0.10;;;21.20;1.00;;;;;;5051275;28;20488;-71
2022/06/27 00:36:35;;;;;;;0.60;0.10;;;21.20;1.00;;;;;;5051654;28;20438;-70
2022/06/27 00:39:04;;;;;;;0.60;0.10;;;21.10;1.00;;;;;;5051433;28;20454;-71
2022/06/27 00:41:32;;;;;;;0.60;0.17;;;21.20;1.00;;;;;;5051088;28;20489;-71
2022/06/27 00:44:00;;;;;;;0.60;0.10;;;21.20;1.00;;;;;;5051299;28;20466;-72
2022/06/27 00:46:29;;;;;;;1.27;1.17;;;21.10;1.00;;;;;;5051487;28;20443;-71
2022/06/27 00:48:57;;;;;;;2.67;2.47;;;21.10;1.00;;;;;;5051493;28;20571;-71
2022/06/27 00:51:25;;;;;;;0.60;0.10;;;21.10;1.00;;;;;;5051715;28;20441;-72
2022/06/27 00:53:53;;;;;;;0.60;0.10;;;21.10;1.00;;;;;;5051328;28;20466;-72
2022/06/27 00:56:23;;;;;;;0.60;0.20;;;21.10;1.00;;;;;;5050692;28;20438;-72
2022/06/27 00:58:51;;;;;;;0.60;0.17;;;21.10;1.00;;;;;;5051739;28;20446;-71
2022/06/27 01:01:19;;;;;;;0.60;0.10;;;21.10;1.00;;;;;;5054080;28;20451;-71
2022/06/27 01:03:47;;;;;;;0.70;0.40;;;21.10;1.00;;;;;;5055883;28;20482;-71
2022/06/27 01:06:14;;;;;;;0.70;0.33;;;21.10;1.00;;;;;;5054977;28;20944;-70
2022/06/27 01:08:42;;;;;;;0.60;0.17;;;21.10;1.00;;;;;;5054679;28;20482;-72
2022/06/27 01:11:10;;;;;;;0.60;0.17;;;20.90;1.00;;;;;;5055227;28;20790;-72
2022/06/27 01:13:40;;;;;;;0.60;0.10;;;20.80;1.00;;;;;;5052270;28;20475;-73
2022/06/27 01:16:07;;;;;;;0.60;0.20;;;20.80;1.00;;;;;;5052716;28;20804;-71
2022/06/27 01:18:36;;;;;;;0.60;0.20;;;20.40;1.00;;;;;;5054940;28;20439;-71
2022/06/27 01:21:04;;;;;;;0.60;0.20;;;20.90;1.00;;;;;;5052640;28;20466;-71
2022/06/27 01:23:34;;;;;;;0.60;0.10;;;21.10;1.00;;;;;;5051356;28;20458;-71
2022/06/27 01:26:03;;;;;;;0.60;0.20;;;21.10;1.00;;;;;;5055522;28;20478;-72
2022/06/27 01:28:31;;;;;;;0.60;0.10;;;21.20;1.00;;;;;;5053740;28;20984;-71
2022/06/27 01:30:58;;;;;;;0.60;0.10;;;21.30;1.00;;;;;;5054414;28;20445;-71
2022/06/27 01:33:26;;;;;;;0.80;0.67;;;21.30;1.00;;;;;;5070588;28;20466;-71
2022/06/27 01:36:41;;;;;;;0.60;0.10;;;21.30;1.00;;;;;;5076103;28;20571;-71
2022/06/27 01:38:43;;;;;;;0.60;0.10;;;21.30;1.00;;;;;;5075603;28;20442;-71
2022/06/27 01:41:12;;;;;;;0.70;0.40;;;;;;;;;;5074746;28;20446;-71
2022/06/27 01:43:39;;;;;;;0.60;0.20;;;21.20;1.00;;;;;;5074232;28;20474;-71
2022/06/27 01:46:07;;;;;;;0.60;0.20;;;21.10;1.00;;;;;;5078349;28;20448;-71
2022/06/27 01:48:36;;;;;;;0.60;0.10;;;21.10;1.00;;;;;;5074629;28;20485;-72
2022/06/27 01:51:04;;;;;;;0.60;0.10;;;21.00;1.00;;;;;;5074465;28;20441;-72
2022/06/27 01:53:32;;;;;;;0.60;0.10;;;20.90;1.00;;;;;;5055969;28;20524;-72
2022/06/27 01:56:01;;;;;;;0.60;0.20;;;20.90;1.00;;;;;;5055149;28;20450;-70
2022/06/27 01:58:29;;;;;;;0.60;0.20;;;20.90;1.00;;;;;;5053871;28;20446;-72
2022/06/27 02:00:58;;;;;;;0.60;0.10;;;20.90;1.00;;;;;;5054407;28;20968;-70
2022/06/27 02:03:26;;;;;;;0.67;0.20;;;20.80;1.00;;;;;;5053840;28;20540;-71
2022/06/27 02:05:56;;;;;;;0.60;0.10;;;20.90;1.00;;;;;;5054036;28;20816;-71
2022/06/27 02:08:26;;;;;;;0.60;0.10;;;20.90;1.00;;;;;;5053312;28;20470;-70
2022/06/27 02:10:54;;;;;;;0.60;0.10;;;20.90;1.00;;;;;;5053721;28;20447;-70
2022/06/27 02:13:23;;;;;;;0.60;0.10;;;20.90;1.00;;;;;;5052844;28;20557;-71
2022/06/27 02:16:06;;;;;;;1.07;0.97;;;20.90;1.00;;;;;;5053681;28;20537;-71
2022/06/27 02:18:35;;;;;;;0.60;0.20;;;20.90;1.00;;;;;;5053909;28;20872;-70
2022/06/27 02:21:04;;;;;;;1.30;1.20;;;20.90;1.00;;;;;;5055025;28;20538;-70
2022/06/27 02:23:32;;;;;;;0.60;0.10;;;20.70;1.00;;;;;;5065118;28;20473;-70
2022/06/27 02:26:00;;;;;;;0.60;0.37;;;20.70;1.00;;;;;;5075384;28;20453;-70
2022/06/27 02:28:30;;;;;;;0.90;0.40;;;20.50;1.00;;;;;;5061058;28;20474;-71
2022/06/27 02:30:58;;;;;;;0.60;0.20;;;20.30;1.00;;;;;;5053120;28;20446;-70
2022/06/27 02:33:34;;;;;;;0.70;0.30;;;20.10;1.00;;;;;;5052600;28;20529;-71
2022/06/27 02:36:02;;;;;;;0.60;0.30;;;19.90;1.00;;;;;;5052459;28;20442;-71
2022/06/27 02:38:30;;;;;;;0.60;0.10;;;19.90;1.00;;;;;;5067568;28;20526;-71
2022/06/27 02:41:00;;;;;;;0.60;0.10;;;19.90;1.00;;;;;;5072782;28;20440;-71
2022/06/27 02:43:32;;;;;;;0.60;0.10;;;20.10;1.00;;;;;;5072912;28;20485;-71
2022/06/27 02:46:01;;;;;;;0.60;0.20;;;20.10;1.00;;;;;;5072219;28;20450;-71
2022/06/27 02:48:32;;;;;;;0.60;0.10;;;20.20;1.00;;;;;;5072465;28;20483;-73
2022/06/27 02:51:05;;;;;;;0.60;0.20;;;20.20;1.00;;;;;;5072866;28;20948;-71
2022/06/27 02:53:35;;;;;;;0.60;0.10;;;20.20;1.00;;;;;;5061998;28;20909;-71
2022/06/27 02:56:04;;;;;;;0.60;0.10;;;20.20;1.00;;;;;;5052281;28;20446;-71
2022/06/27 02:58:43;;;;;;;0.60;0.10;;;20.10;1.00;;;;;;5052037;28;20442;-72
2022/06/27 03:01:13;;;;;;;0.60;0.10;;;20.10;1.00;;;;;;5052295;28;20804;-72
2022/06/27 03:03:42;;;;;;;0.60;0.10;;;20.10;1.00;;;;;;5052553;28;20467;-71
2022/06/27 03:06:12;;;;;;;0.60;0.10;;;20.10;1.00;;;;;;5052390;28;20438;-72
2022/06/27 03:08:42;;;;;;;0.60;0.10;;;20.10;1.00;;;;;;5054162;28;20473;-72
2022/06/27 03:11:11;;;;;;;0.60;0.10;;;20.20;1.00;;;;;;5052194;28;20450;-70
2022/06/27 03:13:41;;;;;;;0.60;0.10;;;20.20;1.00;;;;;;5051900;28;20470;-71
2022/06/27 03:16:10;;;;;;;0.60;0.10;;;20.20;1.00;;;;;;5054120;28;20537;-71
2022/06/27 03:18:38;;;;;;;0.60;0.23;;;20.20;1.00;;;;;;5053584;28;20450;-71
2022/06/27 03:21:05;;;;;;;0.60;0.10;;;20.20;1.00;;;;;;5053270;28;20443;-71
2022/06/27 03:23:34;;;;;;;0.60;0.10;;;20.10;1.00;;;;;;5051869;28;20492;-71
2022/06/27 03:26:02;;;;;;;0.60;0.10;;;20.10;1.00;;;;;;5052827;28;20447;-70
2022/06/27 03:28:30;;;;;;;0.60;0.10;;;20.10;1.00;;;;;;5051871;28;20457;-71
2022/06/27 03:30:59;;;;;;;0.60;0.10;;;20.10;1.00;;;;;;5052496;28;20541;-71
2022/06/27 03:33:27;;;;;;;0.60;0.10;;;20.10;1.00;;;;;;5051901;28;20914;-71
2022/06/27 03:36:01;;;;;;;0.60;0.10;;;20.10;1.00;;;;;;5051525;28;20442;-71
2022/06/27 03:38:29;;;;;;;0.60;0.10;;;20.10;1.00;;;;;;5051739;28;20833;-71
2022/06/27 03:40:57;;;;;;;0.60;0.10;;;20.20;1.00;;;;;;5054109;28;20447;-71
2022/06/27 03:43:25;;;;;;;0.60;0.10;;;20.20;1.00;;;;;;5054256;28;20481;-71
2022/06/27 03:45:53;;;;;;;0.60;0.10;;;20.30;1.00;;;;;;5052185;28;20442;-70
2022/06/27 03:51:10;;;;;;;0.60;0.20;;;20.30;1.00;;;;;;5051439;28;20517;-71
2022/06/27 03:53:38;;;;;;;0.60;0.20;;;20.30;1.00;;;;;;5052192;28;20845;-71
2022/06/27 03:56:07;;;;;;;0.60;0.20;;;20.30;1.00;;;;;;5051982;28;20434;-72
2022/06/27 03:58:35;;;;;;;0.60;0.17;;;20.30;1.00;;;;;;5070516;28;20441;-72
2022/06/27 04:01:03;;;;;;;0.60;0.10;;;20.40;1.00;;;;;;5071697;28;20920;-71
2022/06/27 04:03:33;;;;;;;0.60;0.10;;;;;;;;;;5071631;28;20557;-71
2022/06/27 04:06:01;;;;;;;0.60;0.10;;;20.40;1.00;;;;;;5071516;28;20491;-70
2022/06/27 04:08:29;;;;;;;0.60;0.10;;;20.50;1.00;;;;;;5071409;28;20545;-71
2022/06/27 04:10:57;;;;;;;0.60;0.20;;;20.50;1.00;;;;;;5071628;28;20837;-71
2022/06/27 04:13:25;;;;;;;0.60;0.10;;;20.50;1.00;;;;;;5069809;28;20465;-71
2022/06/27 04:15:53;;;;;;;0.60;0.20;;;20.50;1.00;;;;;;5071315;28;20445;-72
2022/06/27 04:18:21;;;;;;;0.60;0.10;;;20.50;1.00;;;;;;5071284;28;20468;-72
2022/06/27 04:20:50;;;;;;;0.60;0.10;;;20.50;1.00;;;;;;5071846;28;20951;-70
2022/06/27 04:23:18;;;;;;;0.60;0.30;;;20.50;1.00;;;;;;5071953;28;20470;-70
2022/06/27 04:25:45;;;;;;;0.60;0.10;;;20.50;1.00;;;;;;5071648;28;20449;-70
2022/06/27 04:28:13;;;;;;;0.60;0.20;;;20.50;1.00;;;;;;5058747;28;20449;-71
2022/06/27 04:30:41;;;;;;;0.60;0.10;;;20.50;1.00;;;;;;5060997;28;20471;-71
2022/06/27 04:33:10;;;;;;;0.60;0.10;;;20.50;1.00;;;;;;5051005;28;20521;-71
2022/06/27 04:35:40;;;;;;;0.60;0.20;;;20.50;1.00;;;;;;5055481;28;20451;-71
2022/06/27 04:38:09;;;;;;;0.60;0.10;;;20.50;1.00;;;;;;5054107;28;20949;-71
2022/06/27 04:40:37;;;;;;;0.60;0.20;;;20.50;1.00;;;;;;5058905;28;20432;-71
2022/06/27 04:43:10;;;;;;;0.60;0.10;;;20.50;1.00;;;;;;5051810;23;20499;-77
2022/06/27 04:45:38;;;;;;;0.60;0.20;;;20.50;1.00;;;;;;5036103;28;20466;-75
2022/06/27 04:48:07;;;;;;;0.60;0.20;;;20.60;1.00;;;;;;5038333;28;20922;-77
2022/06/27 04:50:36;;;;;;;0.60;0.10;;;20.50;1.00;;;;;;5037681;28;20487;-77
2022/06/27 04:53:04;;;;;;;0.60;0.10;;;20.50;1.00;;;;;;5034640;28;20473;-74
2022/06/27 04:55:33;;;;;;;0.70;0.40;;;20.50;1.00;;;;;;5033395;28;20463;-77
2022/06/27 04:58:02;;;;;;;0.80;0.53;;;20.40;1.00;;;;;;5032238;28;20443;-77
2022/06/27 05:00:30;;;;;;;1.03;0.40;;;20.10;1.00;;;;;;5032297;28;20454;-77
2022/06/27 05:02:58;;;;;;;0.60;0.20;;;20.00;1.00;;;;;;5033363;28;20827;-77
2022/06/27 05:05:26;;;;;;;45.70;8.00;;;20.10;1.00;;;;;;5033608;28;20639;-77
2022/06/27 05:07:56;;;;;;;1.70;1.17;;;20.10;1.00;;;;;;5033573;28;20603;-75
2022/06/27 05:10:23;;;;;;;0.60;0.17;;;20.10;1.00;;;;;;5025342;28;20483;-76
2022/06/27 05:12:53;;;;;;;0.60;0.10;;;20.10;1.00;;;;;;5026360;28;20467;-76
2022/06/27 05:15:21;;;;;;;1.43;1.23;;;20.10;1.00;;;;;;5034345;28;20950;-77
2022/06/27 05:17:49;;;;;;;0.80;0.60;;;20.20;1.00;;;;;;5016986;28;20974;-70
2022/06/27 05:20:17;;;;;;;0.70;0.27;;;20.20;1.00;;;;;;5014276;28;20456;-70
2022/06/27 05:22:45;;;;;;;0.60;0.10;;;20.20;1.00;;;;;;5013693;28;20468;-69
2022/06/27 05:25:13;;;;;;;0.60;0.20;;;20.40;1.00;;;;;;5014136;28;20456;-67
2022/06/27 05:27:41;;;;;;;1.57;1.13;;;20.30;1.00;;;;;;5029315;28;20448;-71
2022/06/27 05:30:11;;;;;;;1.00;0.40;;;20.30;1.00;;;;;;5054073;28;20474;-69
2022/06/27 05:32:39;;;;;;;0.60;0.10;;;20.30;1.00;;;;;;5033981;28;20982;-71
2022/06/27 05:35:08;;;;;;;1.47;1.37;;;20.30;1.00;;;;;;5013458;28;20475;-72
2022/06/27 05:37:37;;;;;;;0.70;0.27;;;20.30;1.00;;;;;;5013749;28;20452;-70
2022/06/27 05:40:07;;;;;;;0.60;0.10;;;20.40;1.00;;;;;;5013673;28;20444;-73
2022/06/27 05:42:35;;;;;;;0.60;0.20;;;20.40;1.00;;;;;;5014183;28;20471;-73
2022/06/27 05:45:04;;;;;;;1.57;0.73;;;20.50;1.00;;;;;;5033101;28;20447;-73
2022/06/27 05:47:34;;;;;;;0.70;0.40;;;20.50;1.00;;;;;;5031488;28;20451;-70
2022/06/27 05:50:04;;;;;;;0.60;0.10;;;20.60;1.00;;;;;;5021218;28;20551;-68
2022/06/27 05:52:32;;;;;;;2.50;0.63;;;20.60;1.00;;;;;;5025310;28;20462;-69
2022/06/27 05:55:00;;;;;;;2.37;1.50;;;20.60;1.00;;;;;;5035448;28;20858;-68
2022/06/27 05:57:28;;;;;;;0.60;0.10;;;20.60;1.00;;;;;;5048187;28;20448;-68
2022/06/27 05:59:56;;;;;;;0.67;0.30;;;20.60;1.00;;;;;;5033080;28;20436;-68
2022/06/27 06:02:25;;;;;;;1.40;1.30;;;20.60;1.00;;;;;;5033116;28;20459;-68
2022/06/27 06:04:54;;;;;;;1.77;0.87;;;20.60;1.00;;;;;;5037675;28;21019;-68
2022/06/27 06:07:22;;;;;;;3.97;2.23;;;20.50;1.00;;;;;;5025047;28;20819;-67
2022/06/27 06:09:50;;;;;;;0.70;0.33;;;20.40;1.00;;;;;;5013418;28;20456;-68
2022/06/27 06:12:18;;;;;;;0.97;0.43;;;20.50;1.00;;;;;;5013104;28;20559;-67
2022/06/27 06:14:47;;;;;;;1.07;0.60;;;20.50;1.00;;;;;;5024574;28;20538;-68
2022/06/27 06:17:16;;;;;;;0.70;0.30;;;20.60;1.00;;;;;;5033467;28;20930;-68
2022/06/27 06:19:43;;;;;;;0.70;0.40;;;20.60;1.00;;;;;;5032947;28;20451;-67
2022/06/27 06:22:13;;;;;;;0.60;0.20;;;;;;;;;;5030213;28;20506;-67
2022/06/27 06:24:41;;;;;;;1.30;0.80;;;20.80;1.00;;;;;;5028641;28;20467;-68
2022/06/27 06:27:09;;;;;;;0.60;0.30;;;20.70;1.00;;;;;;5043104;28;20503;-68
2022/06/27 06:29:37;;;;;;;0.60;0.20;;;20.80;1.00;;;;;;5044540;28;21000;-67
2022/06/27 06:32:06;;;;;;;0.80;0.37;;;20.80;1.00;;;;;;5052583;28;20481;-67
2022/06/27 06:34:35;;;;;;;0.60;0.20;;;20.80;1.00;;;;;;5032192;28;20467;-68
2022/06/27 06:37:05;;;;;;;3.10;0.47;;;20.90;1.00;;;;;;5012834;28;20576;-68
2022/06/27 06:39:41;;;;;;;0.70;0.40;;;20.90;1.00;;;;;;5012807;28;20440;-68
2022/06/27 06:42:10;;;;;;;0.60;0.10;;;20.90;1.00;;;;;;5012454;28;20532;-68
2022/06/27 06:44:38;;;;;;;0.60;0.20;;;21.00;1.00;;;;;;5011935;28;20818;-68
2022/06/27 06:47:08;;;;;;;0.70;0.40;;;21.00;1.00;;;;;;5012047;28;20444;-68
2022/06/27 06:49:36;;;;;;;0.80;0.30;;;21.00;1.00;;;;;;5012339;28;20440;-69
2022/06/27 06:52:04;;;;;;;0.60;0.10;;;21.00;1.00;;;;;;5024958;28;20486;-69
2022/06/27 06:54:32;;;;;;;0.60;0.10;;;21.10;1.00;;;;;;5036093;28;20463;-67
2022/06/27 06:57:02;;;;;;;0.60;0.10;;;21.20;1.00;;;;;;5052290;28;20438;-69
2022/06/27 06:59:30;;;;;;;0.60;0.17;;;21.40;1.00;;;;;;5051851;28;20952;-67
2022/06/27 07:01:58;;;;;;;0.70;0.30;;;21.40;1.00;;;;;;5052027;28;20441;-68
2022/06/27 07:04:26;;;;;;;0.60;0.10;;;21.40;1.00;;;;;;5042943;28;20464;-67
2022/06/27 07:06:55;;;;;;;0.90;0.77;;;21.40;1.00;;;;;;5011696;28;20452;-67
2022/06/27 07:09:23;;;;;;;1.47;1.03;;;21.40;1.00;;;;;;5011866;28;20440;-68
2022/06/27 07:11:51;;;;;;;0.80;0.30;;;21.40;1.00;;;;;;5012348;28;20516;-68
2022/06/27 07:14:21;;;;;;;0.70;0.33;;;21.30;1.00;;;;;;5016323;28;20457;-68
2022/06/27 07:16:51;;;;;;;0.93;0.83;;;;;;;;;;5017654;28;20524;-68
2022/06/27 07:19:19;;;;;;;0.60;0.10;;;21.30;1.00;;;;;;5020083;28;20447;-68
2022/06/27 07:21:47;;;;;;;0.60;0.17;;;21.50;1.00;;;;;;5012226;28;20436;-69
2022/06/27 07:24:15;;;;;;;0.60;0.30;;;21.50;1.00;;;;;;5020924;28;20460;-68
2022/06/27 07:26:43;;;;;;;0.60;0.10;;;21.50;1.00;;;;;;5011636;28;20451;-67
2022/06/27 07:29:11;;;;;;;0.77;0.47;;;21.50;1.00;;;;;;5011625;28;20919;-68
2022/06/27 07:31:41;;;;;;;0.60;0.20;;;21.60;1.00;;;;;;5011869;28;20939;-67
2022/06/27 07:34:11;;;;;;;1.27;1.17;;;21.60;1.00;;;;;;5011537;28;20534;-68
2022/06/27 07:36:39;;;;;;;0.60;0.10;;;21.60;1.00;;;;;;5011773;28;20455;-69
2022/06/27 07:39:07;;;;;;;0.60;0.10;;;21.70;1.00;;;;;;5011864;28;20444;-68
2022/06/27 07:41:35;;;;;;;0.70;0.43;;;21.80;1.00;;;;;;5011824;28;20870;-69
2022/06/27 07:44:05;;;;;;;0.60;0.10;;;22.10;1.00;;;;;;5011656;28;20472;-69
2022/06/27 07:46:34;;;;;;;0.60;0.10;;;22.10;1.00;;;;;;5011175;28;20447;-69
2022/06/27 07:49:04;;;;;;;0.60;0.23;;;22.20;1.00;;;;;;5013061;28;20432;-67
2022/06/27 07:51:32;;;;;;;0.70;0.10;;;22.20;1.00;;;;;;5032617;28;20569;-68
2022/06/27 07:53:59;;;;;;;0.70;0.10;;;22.40;1.00;;;;;;5040842;28;20479;-68
2022/06/27 07:56:27;;;;;;;0.70;0.10;;;22.50;1.00;;;;;;5029146;28;20446;-68
2022/06/27 07:59:17;;;;;;;0.67;0.20;;;22.60;1.00;;;;;;5029593;28;20886;-68
2022/06/27 08:01:45;;;;;;;0.70;0.10;;;22.70;1.00;;;;;;5029824;28;20442;-67
2022/06/27 08:04:15;;;;;;;0.70;0.10;;;22.80;1.00;;;;;;5029092;28;20574;-68
2022/06/27 08:06:46;;;;;;;0.70;0.10;;;22.90;1.00;;;;;;5013895;28;20947;-67
2022/06/27 08:09:14;;;;;;;0.70;0.10;;;22.80;1.00;;;;;;5017765;28;20443;-66
2022/06/27 08:11:43;;;;;;;1.87;1.77;;;22.60;1.00;;;;;;5030951;28;20498;-68
2022/06/27 08:14:13;;;;;;;1.37;0.87;;;22.60;1.00;;;;;;5026020;28;20486;-70
2022/06/27 08:16:42;;;;;;;0.70;0.10;;;22.30;1.00;;;;;;5049219;28;20439;-68
2022/06/27 08:19:11;;;;;;;0.60;0.10;;;22.40;1.00;;;;;;5034652;28;20454;-68
2022/06/27 08:21:41;;;;;;;0.70;0.10;;;22.40;1.00;;;;;;5034615;28;20434;-67
2022/06/27 08:24:11;;;;;;;0.93;0.30;;;22.40;1.00;;;;;;5034183;28;20510;-68
2022/06/27 08:26:40;;;;;;;0.67;0.17;;;;;;;;;;5029829;28;20460;-68
2022/06/27 08:29:08;;;;;;;0.60;0.10;;;22.50;1.00;;;;;;5054563;28;20548;-66
2022/06/27 08:31:37;;;;;;;0.70;0.10;;;22.70;1.00;;;;;;5047737;28;20475;-65
2022/06/27 08:34:06;;;;;;;0.70;0.10;;;22.90;1.00;;;;;;5034701;28;20467;-67
2022/06/27 08:36:36;;;;;;;1.17;0.50;;;23.00;1.00;;;;;;5034391;28;20450;-66
2022/06/27 08:39:07;;;;;;;0.70;0.20;;;23.10;1.00;;;;;;5035015;28;20463;-66
2022/06/27 08:41:36;;;;;;;0.70;0.20;;;23.10;1.00;;;;;;5034430;28;20450;-65
2022/06/27 08:44:07;;;;;;;0.70;0.10;;;23.00;1.00;;;;;;5031278;28;20470;-66
2022/06/27 08:46:35;;;;;;;0.70;0.20;;;23.00;1.00;;;;;;5034317;28;20630;-66
2022/06/27 08:49:05;;;;;;;0.70;0.20;;;23.10;1.00;;;;;;5034434;28;20489;-68
2022/06/27 08:51:34;;;;;;;0.70;0.10;;;23.20;1.00;;;;;;5034752;28;20471;-66
2022/06/27 08:54:03;;;;;;;0.70;0.20;;;23.30;1.00;;;;;;5034300;28;20983;-67
2022/06/27 08:56:33;;;;;;;0.70;0.20;;;23.40;1.00;;;;;;5034266;28;20443;-65
2022/06/27 08:59:02;;;;;;;0.90;0.73;;;23.30;1.00;;;;;;5021363;28;20869;-66
2022/06/27 09:01:30;;;;;;;0.70;0.10;;;23.20;1.00;;;;;;5014300;28;20448;-66
2022/06/27 09:04:00;;;;;;;0.87;0.40;;;23.20;1.00;;;;;;5014463;28;20526;-66
2022/06/27 09:06:32;;;;;;;0.80;0.60;;;22.90;1.00;;;;;;5015994;28;20843;-68
2022/06/27 09:09:06;;;;;;;0.70;0.17;;;22.60;1.00;;;;;;5046214;28;20442;-67
2022/06/27 09:11:37;;;;;;;0.70;0.20;;;22.50;1.00;;;;;;5029074;28;20451;-65
2022/06/27 09:14:06;;;;;;;1.00;0.27;;;22.30;1.00;;;;;;5032015;28;20558;-67
2022/06/27 09:16:35;;;;;;;0.70;0.10;;;22.30;1.00;;;;;;5014683;28;20476;-66
2022/06/27 09:19:07;;;;;;;0.70;0.10;;;22.10;1.00;;;;;;5014878;28;20472;-66
2022/06/27 09:21:36;;;;;;;1.23;0.73;;;;;;;;;;5014444;28;20444;-68
2022/06/27 09:24:04;;;;;;;0.70;0.10;;;22.00;1.00;;;;;;5014338;28;20465;-67
2022/06/27 09:26:35;;;;;;;0.80;0.63;;;22.10;1.00;;;;;;5014252;28;20436;-68
2022/06/27 09:29:06;;;;;;;0.67;0.20;;;22.10;1.00;;;;;;5014496;28;20456;-67
2022/06/27 09:31:38;;;;;;;0.67;0.10;;;22.10;1.00;;;;;;5029254;28;20454;-67
2022/06/27 09:34:12;;;;;;;0.60;0.10;;;22.10;1.00;;;;;;5034024;28;20486;-68
2022/06/27 09:36:42;;;;;;;1.00;0.40;;;22.40;1.00;;;;;;5033881;28;21068;-67
2022/06/27 09:39:23;;;;;;;0.80;0.30;;;22.40;1.00;;;;;;5026667;28;20468;-68
2022/06/27 09:41:59;;;;;;;0.70;0.20;;;22.40;1.00;;;;;;5036097;28;20811;-67
2022/06/27 09:44:30;;;;;;;0.70;0.20;;;22.70;1.00;;;;;;5042410;28;20463;-67
2022/06/27 09:47:08;;;;;;;1.80;1.23;;;22.70;1.00;;;;;;5031785;28;20928;-72
2022/06/27 09:49:38;;;;;;;0.70;0.30;;;23.00;1.00;;;;;;5033473;28;20835;-67
2022/06/27 09:52:09;;;;;;;0.70;0.20;;;23.00;1.00;;;;;;5033410;28;20451;-68
2022/06/27 09:54:39;;;;;;;0.70;0.20;;;23.10;1.00;;;;;;5033252;28;20826;-69
2022/06/27 09:57:10;;;;;;;0.80;0.40;;;23.10;1.00;;;;;;5024744;28;20446;-67
2022/06/27 09:59:42;;;;;;;0.70;0.20;;;23.40;1.00;;;;;;5025871;28;20723;-66
2022/06/27 10:02:13;;;;;;;0.70;0.20;;;23.50;1.00;;;;;;5037395;28;20520;-68
2022/06/27 10:04:43;;;;;;;0.70;0.20;;;23.60;1.00;;;;;;5048102;28;20463;-67
2022/06/27 10:07:13;;;;;;;0.70;0.20;;;23.60;1.00;;;;;;5050012;28;20438;-68
2022/06/27 10:09:42;;;;;;;0.70;0.10;;;23.80;1.00;;;;;;5035080;28;20459;-67
2022/06/27 10:12:28;;;;;;;0.70;0.20;;;23.90;1.00;;;;;;5031847;28;20444;-66
2022/06/27 10:15:20;;;;;;;1.00;0.67;;;24.00;1.00;;;;;;5031999;28;20671;-67
2022/06/27 10:17:56;;;;;;;0.80;0.33;;;23.70;1.00;;;;;;5030737;28;20455;-67
2022/06/27 10:20:36;;;;;;;0.70;0.10;;;23.70;1.00;;;;;;5050411;28;20996;-67
2022/06/27 10:23:31;;;;;;;1.10;0.47;;;23.90;1.00;;;;;;5052271;28;20542;-67
2022/06/27 10:26:01;;;;;;;0.70;0.17;;;24.00;1.00;;;;;;5052421;28;20496;-67
2022/06/27 10:28:31;;;;;;;0.70;0.10;;;24.00;1.00;;;;;;5052220;28;20843;-67
2022/06/27 10:31:00;;;;;;;0.70;0.13;;;24.10;1.00;;;;;;5052284;28;20812;-66
2022/06/27 10:33:41;;;;;;;1.87;0.30;;;24.40;99.90;;;;;;5029902;28;20856;-67
2022/06/27 10:36:13;;;;;;;0.70;0.20;;;24.60;99.90;;;;;;5048280;28;20820;-66
2022/06/27 10:39:01;;;;;;;0.70;0.30;;;24.60;99.90;;;;;;5038517;28;21059;-66
2022/06/27 10:41:39;;;;;;;0.70;0.10;;;24.50;99.90;;;;;;5038953;28;20440;-66
2022/06/27 10:47:01;;;;;;;0.70;0.20;;;24.40;99.90;;;;;;5131509;27;20543;-65
2022/06/27 10:49:31;;;;;;;1.30;0.70;;;24.40;99.90;;;;;;5129238;28;20459;-66
2022/06/27 10:52:32;;;;;;;1.87;0.40;;;24.40;99.90;;;;;;5129021;28;20441;-66
2022/06/27 10:55:01;;;;;;;0.70;0.13;;;24.40;99.90;;;;;;5108691;28;20748;-66
2022/06/27 10:57:44;;;;;;;0.70;0.20;;;24.40;99.90;;;;;;5108025;28;20467;-67
2022/06/27 11:00:38;;;;;;;0.80;0.30;;;24.60;99.90;;;;;;5108206;28;20443;-67
2022/06/27 11:03:08;;;;;;;0.90;0.40;;;24.80;99.90;;;;;;5108823;28;20830;-68
2022/06/27 11:05:54;;;;;;;0.70;0.10;;;24.70;99.90;;;;;;5107945;28;20508;-68
2022/06/27 11:08:22;;;;;;;0.70;0.10;;;24.70;99.90;;;;;;5100487;28;20447;-67
2022/06/27 11:10:51;;;;;;;0.70;0.20;;;24.70;99.90;;;;;;5108091;28;20446;-67
2022/06/27 11:13:37;;;;;;;0.70;0.20;;;24.70;99.90;;;;;;5107898;28;20468;-66
2022/06/27 11:16:09;;;;;;;1.80;0.63;;;24.80;99.90;;;;;;5106544;28;20519;-68
2022/06/27 11:18:42;;;;;;;0.70;0.20;;;24.70;99.90;;;;;;5106822;28;20424;-67
2022/06/27 11:21:11;;;;;;;0.70;0.13;;;24.60;99.90;;;;;;5107886;28;20440;-68
2022/06/27 11:23:53;;;;;;;0.80;0.40;;;24.60;99.90;;;;;;5107598;28;20466;-67
2022/06/27 11:26:24;;;;;;;0.80;0.57;;;24.50;99.90;;;;;;5107259;28;20514;-67
2022/06/27 11:31:59;;;;;;;0.80;0.60;;;24.10;99.90;;;;;;5108900;28;20776;-68
2022/06/27 11:34:30;;;;;;;1.00;0.90;;;23.70;1.00;;;;;;5087882;28;20503;-67
2022/06/27 11:37:00;;;;;;;1.00;0.50;;;23.50;1.00;;;;;;5087997;28;20440;-67
2022/06/27 11:39:33;;;;;;;0.80;0.20;;;23.40;1.00;;;;;;5095194;28;20546;-66
2022/06/27 11:42:03;;;;;;;1.70;1.50;;;23.30;1.00;;;;;;5105786;28;20451;-67
2022/06/27 11:44:31;;;;;;;2.20;1.90;;;23.00;1.00;;;;;;5104619;28;20463;-67
2022/06/27 11:47:08;;;;;;;1.83;0.90;;;22.70;1.00;;;;;;5094577;28;21004;-67
2022/06/27 11:49:37;;;;;;;2.10;1.33;;;22.70;1.00;;;;;;5107638;28;20447;-66
2022/06/27 11:52:12;;;;;;;1.37;0.60;;;22.60;1.00;;;;;;5108050;28;20475;-67
2022/06/27 11:54:43;;;;;;;0.70;0.20;;;22.60;1.00;;;;;;5107955;28;20858;-66
2022/06/27 11:57:25;;;;;;;1.47;0.87;;;22.60;1.00;;;;;;5100994;28;20868;-67
2022/06/27 11:59:55;;;;;;;1.17;1.07;;;22.60;1.00;;;;;;5094667;28;21044;-67
2022/06/27 12:02:30;;;;;;;1.07;0.80;;;22.60;1.00;;;;;;5094885;28;20440;-67
2022/06/27 12:05:09;;;;;;;1.10;0.57;;;22.60;1.00;;;;;;5094103;28;20445;-67
2022/06/27 12:07:58;;;;;;;0.70;0.30;;;22.70;1.00;;;;;;5094920;28;20536;-68
2022/06/27 12:10:45;;;;;;;0.70;0.10;;;22.80;1.00;;;;;;5094381;28;20514;-68
2022/06/27 12:13:15;;;;;;;0.70;0.13;;;23.00;1.00;;;;;;5093843;28;20969;-67
2022/06/27 12:15:45;;;;;;;0.70;0.20;;;23.00;1.00;;;;;;5093966;28;20440;-66
2022/06/27 12:18:15;;;;;;;0.70;0.10;;;23.20;1.00;;;;;;5093722;28;20542;-67
2022/06/27 12:20:44;;;;;;;0.70;0.30;;;23.30;1.00;;;;;;5093984;28;20448;-68
2022/06/27 12:23:12;;;;;;;0.70;0.20;;;23.60;1.00;;;;;;5093896;28;20464;-69
2022/06/27 12:25:40;;;;;;;0.70;0.10;;;23.70;1.00;;;;;;5093852;28;20440;-70
2022/06/27 12:28:09;;;;;;;0.70;0.30;;;24.20;99.90;;;;;;5094042;28;20846;-68
2022/06/27 12:30:37;;;;;;;1.10;0.77;;;24.20;99.90;;;;;;5092907;28;20954;-67
2022/06/27 12:33:06;;;;;;;0.70;0.20;;;24.50;99.90;;;;;;5091897;28;20464;-68
2022/06/27 12:35:36;;;;;;;0.70;0.10;;;24.50;99.90;;;;;;5091775;28;20449;-67
2022/06/27 12:38:06;;;;;;;0.70;0.10;;;24.50;99.90;;;;;;5092202;28;20953;-67
2022/06/27 12:40:36;;;;;;;0.70;0.10;;;24.50;99.90;;;;;;5090122;28;20456;-69
2022/06/27 12:43:04;;;;;;;0.70;0.10;;;24.60;99.90;;;;;;5093559;28;20453;-67
2022/06/27 12:45:33;;;;;;;0.70;0.20;;;24.70;99.90;;;;;;5091778;28;20486;-68
2022/06/27 12:48:03;;;;;;;0.70;0.10;;;24.70;99.90;;;;;;5088658;28;20501;-68
2022/06/27 12:50:32;;;;;;;0.70;0.10;;;24.70;99.90;;;;;;5093458;28;20754;-67
2022/06/27 12:53:01;;;;;;;0.70;0.20;;;24.50;99.90;;;;;;5093705;28;20500;-68
2022/06/27 12:55:29;;;;;;;0.70;0.10;;;;;;;;;;5093428;28;20436;-66
2022/06/27 12:57:57;;;;;;;0.73;0.37;;;24.40;99.90;;;;;;5093417;28;20437;-68
2022/06/27 13:00:25;;;;;;;0.70;0.10;;;24.50;99.90;;;;;;5093268;28;20535;-67
2022/06/27 13:02:53;;;;;;;0.70;0.10;;;24.70;99.90;;;;;;5093502;28;20484;-67
2022/06/27 13:05:27;;;;;;;0.70;0.10;;;24.70;99.90;;;;;;5092704;28;20455;-67
2022/06/27 13:07:55;;;;;;;1.00;0.30;;;24.70;99.90;;;;;;5092944;28;20483;-65
2022/06/27 13:10:24;;;;;;;0.70;0.10;;;24.50;99.90;;;;;;5082119;28;20813;-65
2022/06/27 13:12:52;;;;;;;0.70;0.10;;;24.60;99.90;;;;;;5073220;28;20541;-67
2022/06/27 13:15:21;;;;;;;0.70;0.10;;;24.70;99.90;;;;;;5090130;28;20456;-67
2022/06/27 13:17:49;;;;;;;0.70;0.10;;;24.90;99.90;;;;;;5072413;28;20762;-66
2022/06/27 13:20:17;;;;;;;0.80;0.50;;;25.20;99.90;;;;;;5081819;28;20445;-67
2022/06/27 13:22:45;;;;;;;0.70;0.30;;;25.20;99.90;;;;;;5092925;28;20463;-67